Time;durP1;ratioP1;P1;durP2;ratioP2;P2;SDS_P1;SDS_P2;PMS_P1;PMS_P2;Temp;Humidity;BMP_temperature;BMP_pressure;BME280_temperature;BME280_humidity;BME280_pressure;Samples;Min_cycle;Max_cycle;Signal;HPM_P1;HPM_P2
2022/04/30 00:01:20;;;;;;;;;;;;;;;6.95;40.28;97215.78;6372353;27;19934;-64
2022/04/30 00:04:21;;;;;;;;;;;;;;;6.95;40.33;97222.81;6372142;27;19924;-63
2022/04/30 00:07:27;;;;;;;;;;;;;;;6.81;40.64;97222.56;6373226;27;20304;-64
2022/04/30 00:10:31;;;;;;;;;;;;;;;6.73;40.44;97218.50;6372939;27;19927;-64
2022/04/30 00:13:37;;;;;;;;;;;;;;;6.71;40.83;97227.38;6373224;27;19924;-64
2022/04/30 00:16:38;;;;;;;;;;;;;;;6.80;40.52;97231.34;6372246;27;20410;-64
2022/04/30 00:19:41;;;;;;;;;;;;;;;6.85;40.56;97224.13;6372411;27;19926;-64
2022/04/30 00:22:43;;;;;;;;;;;;;;;6.66;40.94;97230.16;6372285;27;19932;-63
2022/04/30 00:25:44;;;;;;;;;;;;;;;6.67;40.92;97226.63;6372117;27;19930;-64
2022/04/30 00:28:46;;;;;;;;;;;;;;;6.67;40.79;97225.78;6372811;27;19924;-65
2022/04/30 00:31:47;;;;;;;;;;;;;;;6.61;41.12;97226.91;6372277;27;20408;-64
2022/04/30 00:34:48;;;;;;;;;;;;;;;6.64;41.31;97221.53;6353648;27;19924;-64
2022/04/30 00:37:51;;;;;;;;;;;;;;;6.56;41.21;97218.41;6372636;27;19924;-63
2022/04/30 00:40:52;;;;;;;;;;;;;;;6.45;41.21;97220.63;6371572;27;19930;-64
2022/04/30 00:43:54;;;;;;;;;;;;;;;6.59;41.51;97223.50;6372261;27;19934;-65
2022/04/30 00:46:55;;;;;;;;;;;;;;;6.60;41.14;97225.22;6372287;27;19931;-64
2022/04/30 00:49:56;;;;;;;;;;;;;;;6.64;41.08;97220.69;6372352;27;20320;-64
2022/04/30 00:52:58;;;;;;;;;;;;;;;6.63;41.30;97230.31;6372165;27;20465;-63
2022/04/30 00:56:02;;;;;;;;;;;;;;;6.57;41.73;97230.56;6372109;27;19924;-63
2022/04/30 00:59:05;;;;;;;;;;;;;;;6.44;41.56;97240.69;6353135;27;19930;-64
2022/04/30 01:02:09;;;;;;;;;;;;;;;6.46;42.00;97240.66;6371398;27;19923;-64
2022/04/30 01:05:10;;;;;;;;;;;;;;;6.55;41.90;97237.63;6371979;27;19923;-64
2022/04/30 01:08:11;;;;;;;;;;;;;;;6.69;41.54;97243.13;6353655;27;20407;-64
2022/04/30 01:11:13;;;;;;;;;;;;;;;6.63;41.54;97240.75;6370705;27;19931;-64
2022/04/30 01:14:18;;;;;;;;;;;;;;;6.56;41.95;97243.69;6371126;27;20307;-64
2022/04/30 01:17:22;;;;;;;;;;;;;;;6.71;41.47;97236.06;6371049;27;19992;-65
2022/04/30 01:20:26;;;;;;;;;;;;;;;6.64;41.65;97244.22;6371886;27;19923;-64
2022/04/30 01:23:28;;;;;;;;;;;;;;;6.74;41.33;97249.00;6371271;27;19931;-64
2022/04/30 01:26:29;;;;;;;;;;;;;;;6.79;41.11;97240.09;6370557;28;19923;-63
2022/04/30 01:29:30;;;;;;;;;;;;;;;6.88;41.16;97256.25;6371719;28;19927;-63
2022/04/30 01:37:22;;;;;;;;;;;;;;;7.14;40.33;97260.31;6370595;28;19924;-64
2022/04/30 01:39:27;;;;;;;;;;;;;;;6.96;40.69;97263.72;6371509;28;19924;-63
2022/04/30 01:42:30;;;;;;;;;;;;;;;6.85;40.95;97266.84;6370358;28;19924;-63
2022/04/30 01:45:34;;;;;;;;;;;;;;;6.86;40.83;97271.16;6371570;28;20023;-63
2022/04/30 01:48:40;;;;;;;;;;;;;;;6.88;40.71;97266.72;6371437;28;20392;-63
2022/04/30 01:51:50;;;;;;;;;;;;;;;6.86;40.51;97270.31;6371227;28;19927;-64
2022/04/30 01:54:53;;;;;;;;;;;;;;;7.00;40.21;97275.78;6371249;28;19931;-63
2022/04/30 01:57:54;;;;;;;;;;;;;;;6.86;40.48;97278.16;6371218;28;19925;-64
2022/04/30 02:00:56;;;;;;;;;;;;;;;6.78;40.75;97281.09;6370433;28;20025;-64
2022/04/30 02:03:57;;;;;;;;;;;;;;;6.87;40.67;97285.06;6369957;28;19919;-64
2022/04/30 02:07:00;;;;;;;;;;;;;;;6.84;40.87;97287.81;6370688;28;20007;-64
2022/04/30 02:10:05;;;;;;;;;;;;;;;6.95;40.37;97288.22;6371051;28;19923;-64
2022/04/30 02:13:08;;;;;;;;;;;;;;;7.15;40.16;97290.78;6371159;27;20383;-64
2022/04/30 02:16:12;;;;;;;;;;;;;;;7.37;39.69;97287.22;6375831;27;20015;-64
2022/04/30 02:19:16;;;;;;;;;;;;;;;7.55;39.73;97286.34;6375908;27;19923;-64
2022/04/30 02:22:18;;;;;;;;;;;;;;;7.79;39.17;97292.25;6375695;27;19923;-63
2022/04/30 02:25:20;;;;;;;;;;;;;;;7.77;39.31;97293.22;6356635;27;20315;-64
2022/04/30 02:28:21;;;;;;;;;;;;;;;7.76;39.14;97294.16;6374904;27;19961;-63
2022/04/30 02:31:25;;;;;;;;;;;;;;;7.72;39.01;97297.84;6374491;27;19963;-64
2022/04/30 02:34:29;;;;;;;;;;;;;;;7.63;39.56;97299.09;6374301;27;19923;-64
2022/04/30 02:37:35;;;;;;;;;;;;;;;7.58;39.55;97304.53;6376055;27;19920;-64
2022/04/30 02:40:37;;;;;;;;;;;;;;;7.39;39.51;97303.72;6374439;27;19923;-63
2022/04/30 02:43:38;;;;;;;;;;;;;;;7.20;39.95;97296.66;6375589;27;19938;-64
2022/04/30 02:46:41;;;;;;;;;;;;;;;7.10;40.17;97307.59;6357158;27;19919;-64
2022/04/30 02:49:42;;;;;;;;;;;;;;;7.03;40.00;97296.56;6374493;27;19999;-64
2022/04/30 02:52:44;;;;;;;;;;;;;;;7.13;39.89;97303.13;6374796;27;19934;-64
2022/04/30 02:55:45;;;;;;;;;;;;;;;7.19;39.62;97313.31;6374874;27;19923;-64
2022/04/30 03:02:06;;;;;;;;;;;;;;;7.55;39.44;97315.16;6355661;27;19946;-64
2022/04/30 03:05:07;;;;;;;;;;;;;;;7.70;38.98;97312.75;6355568;27;19930;-64
2022/04/30 03:08:12;;;;;;;;;;;;;;;7.71;38.98;97324.97;6374831;27;19927;-64
2022/04/30 03:11:19;;;;;;;;;;;;;;;7.75;38.96;97322.09;6373427;27;20292;-64
2022/04/30 03:14:23;;;;;;;;;;;;;;;7.86;38.68;97324.22;6374491;27;19927;-64
2022/04/30 03:24:03;;;;;;;;;;;;;;;7.95;38.52;97329.03;6372766;27;19923;-64
2022/04/30 03:27:04;;;;;;;;;;;;;;;8.07;37.72;97327.63;6373208;27;19934;-64
2022/04/30 03:30:06;;;;;;;;;;;;;;;7.94;38.26;97331.75;6373693;27;19927;-65
2022/04/30 03:33:11;;;;;;;;;;;;;;;7.93;38.10;97325.66;6374006;27;19923;-63
2022/04/30 03:36:15;;;;;;;;;;;;;;;7.84;38.11;97331.31;6374156;27;19927;-63
2022/04/30 03:39:17;;;;;;;;;;;;;;;7.88;37.90;97332.88;6373751;27;19930;-64
2022/04/30 03:42:18;;;;;;;;;;;;;;;7.83;38.16;97340.09;6372798;27;20392;-65
2022/04/30 03:45:19;;;;;;;;;;;;;;;8.01;37.76;97336.63;6372469;27;19946;-64
2022/04/30 03:48:25;;;;;;;;;;;;;;;7.94;37.85;97342.22;6373783;27;19923;-65
2022/04/30 03:51:28;;;;;;;;;;;;;;;8.14;37.45;97329.03;6373508;27;20313;-65
2022/04/30 03:54:30;;;;;;;;;;;;;;;8.23;37.33;97325.09;6372657;27;20067;-64
2022/04/30 03:57:33;;;;;;;;;;;;;;;8.47;36.38;97326.56;6373342;27;19923;-63
2022/04/30 04:00:37;;;;;;;;;;;;;;;8.33;36.78;97329.00;6373179;27;20018;-64
2022/04/30 04:03:38;;;;;;;;;;;;;;;8.43;36.37;97325.00;6372564;27;19923;-64
2022/04/30 04:06:42;;;;;;;;;;;;;;;8.59;35.89;97319.03;6372508;27;20380;-64
2022/04/30 04:09:43;;;;;;;;;;;;;;;8.57;35.75;97321.72;6372059;27;19954;-64
2022/04/30 04:12:47;;;;;;;;;;;;;;;8.60;35.52;97324.19;6372956;27;19924;-65
2022/04/30 04:19:09;;;;;;;;;;;;;;;8.69;35.25;97326.38;6371413;27;19930;-64
2022/04/30 04:22:12;;;;;;;;;;;;;;;8.75;35.30;97323.44;6371500;27;19930;-64
2022/04/30 04:28:33;;;;;;;;;;;;;;;9.02;34.94;97327.34;6371954;27;19929;-64
2022/04/30 04:31:36;;;;;;;;;;;;;;;9.28;34.40;97324.22;6371439;27;19934;-64
2022/04/30 04:34:40;;;;;;;;;;;;;;;9.34;34.17;97318.66;6372551;27;20299;-63
2022/04/30 04:37:44;;;;;;;;;;;;;;;9.53;33.79;97315.03;6370912;27;19923;-67
2022/04/30 04:40:48;;;;;;;;;;;;;;;9.77;33.54;97310.25;6372339;27;19924;-64
2022/04/30 04:43:48;;;;;;;;;;;;;;;10.09;32.65;97313.72;6371323;27;19923;-64
2022/04/30 04:46:52;;;;;;;;;;;;;;;10.36;32.45;97314.00;6372102;27;19923;-64
2022/04/30 04:49:58;;;;;;;;;;;;;;;13.75;28.30;97321.47;6372378;27;20290;-65
2022/04/30 04:52:59;;;;;;;;;;;;;;;18.62;24.20;97334.69;6371398;27;19923;-64
2022/04/30 04:56:03;;;;;;;;;;;;;;;22.63;20.48;97335.53;6371578;27;19931;-64
2022/04/30 04:59:09;;;;;;;;;;;;;;;25.82;18.23;97357.81;6371866;27;20060;-64
2022/04/30 05:02:10;;;;;;;;;;;;;;;26.69;17.02;97357.22;6371121;27;19930;-64
2022/04/30 05:05:14;;;;;;;;;;;;;;;27.17;17.32;97346.75;6371519;27;20419;-65
2022/04/30 05:08:17;;;;;;;;;;;;;;;28.97;15.75;97341.47;6371962;27;19924;-64
2022/04/30 05:11:18;;;;;;;;;;;;;;;31.12;14.94;97333.66;6371206;27;19931;-65
2022/04/30 05:14:22;;;;;;;;;;;;;;;31.75;13.99;97336.31;6371124;27;20094;-66
2022/04/30 05:17:28;;;;;;;;;;;;;;;31.44;13.49;97337.22;6371721;27;20014;-65
2022/04/30 05:20:29;;;;;;;;;;;;;;;32.63;12.83;97342.56;6371570;27;19930;-65
2022/04/30 05:23:33;;;;;;;;;;;;;;;33.75;10.54;97344.78;6370009;27;19988;-65
2022/04/30 05:26:36;;;;;;;;;;;;;;;35.21;11.35;97339.19;6371491;27;19923;-65
2022/04/30 05:29:37;;;;;;;;;;;;;;;36.59;9.84;97346.88;6370725;28;19930;-65
2022/04/30 05:32:41;;;;;;;;;;;;;;;37.52;9.21;97338.63;6371166;28;19923;-65
2022/04/30 05:35:42;;;;;;;;;;;;;;;38.44;8.36;97343.13;6370074;28;19931;-66
2022/04/30 05:38:43;;;;;;;;;;;;;;;38.91;7.84;97339.50;6371393;28;19923;-65
2022/04/30 05:41:47;;;;;;;;;;;;;;;39.28;6.49;97331.06;6371368;28;20380;-65
2022/04/30 05:44:50;;;;;;;;;;;;;;;38.87;8.50;97330.13;6371223;28;19923;-64
2022/04/30 05:47:51;;;;;;;;;;;;;;;39.20;8.25;97329.66;6371362;27;19919;-64
2022/04/30 05:50:53;;;;;;;;;;;;;;;40.28;8.00;97327.75;6375684;27;19923;-65
2022/04/30 05:53:57;;;;;;;;;;;;;;;41.02;6.75;97328.88;6376332;27;20296;-65
2022/04/30 05:56:58;;;;;;;;;;;;;;;41.10;7.53;97332.16;6376017;27;19925;-65
2022/04/30 06:00:01;;;;;;;;;;;;;;;41.18;5.63;97312.22;6375291;27;19930;-65
2022/04/30 06:03:06;;;;;;;;;;;;;;;41.70;5.32;97319.03;6375868;27;19923;-65
2022/04/30 06:06:10;;;;;;;;;;;;;;;42.83;6.10;97316.75;6374996;27;19923;-66
2022/04/30 06:09:11;;;;;;;;;;;;;;;43.44;5.15;97311.47;6374969;27;20006;-64
2022/04/30 06:12:12;;;;;;;;;;;;;;;43.60;5.39;97314.81;6375276;27;20084;-65
2022/04/30 06:15:13;;;;;;;;;;;;;;;43.92;5.91;97311.22;6375583;27;20447;-65
2022/04/30 06:18:20;;;;;;;;;;;;;;;44.71;5.46;97315.84;6374440;27;19924;-66
2022/04/30 06:21:24;;;;;;;;;;;;;;;44.66;4.59;97307.59;6375613;27;20400;-65
2022/04/30 06:24:25;;;;;;;;;;;;;;;44.84;5.00;97311.41;6375418;27;19929;-64
2022/04/30 06:27:31;;;;;;;;;;;;;;;44.53;4.54;97304.53;6375207;27;19919;-65
2022/04/30 06:30:33;;;;;;;;;;;;;;;44.46;4.13;97304.13;6374566;27;19923;-64
2022/04/30 06:33:34;;;;;;;;;;;;;;;44.25;4.68;97297.31;6374597;27;19919;-65
2022/04/30 06:36:35;;;;;;;;;;;;;;;44.39;4.06;97298.16;6374674;27;19923;-65
2022/04/30 06:39:37;;;;;;;;;;;;;;;43.55;4.27;97289.97;6374153;27;20078;-65
2022/04/30 06:42:42;;;;;;;;;;;;;;;43.89;4.14;97290.47;6374402;27;20004;-65
2022/04/30 06:45:43;;;;;;;;;;;;;;;44.41;4.72;97284.81;6374190;27;19923;-65
2022/04/30 06:48:46;;;;;;;;;;;;;;;45.37;4.19;97294.09;6374635;27;20451;-65
2022/04/30 06:51:50;;;;;;;;;;;;;;;46.18;4.44;97284.81;6374275;27;19930;-64
2022/04/30 06:58:13;;;;;;;;;;;;;;;46.76;4.05;97281.75;6373837;27;19931;-65
2022/04/30 07:04:38;;;;;;;;;;;;;;;46.43;3.16;97264.66;6374794;27;20408;-66
2022/04/30 07:07:39;;;;;;;;;;;;;;;46.01;3.50;97260.53;6373775;27;19919;-65
2022/04/30 07:10:47;;;;;;;;;;;;;;;45.88;3.89;97251.94;6374249;27;20424;-65
2022/04/30 07:13:51;;;;;;;;;;;;;;;46.21;3.30;97259.97;6373826;27;19923;-66
2022/04/30 07:16:54;;;;;;;;;;;;;;;45.84;3.89;97259.28;6372976;27;19923;-65
2022/04/30 07:19:55;;;;;;;;;;;;;;;46.49;3.58;97251.41;6373315;27;19930;-66
2022/04/30 07:22:59;;;;;;;;;;;;;;;46.49;3.34;97240.25;6355209;27;19927;-64
2022/04/30 07:26:04;;;;;;;;;;;;;;;46.01;3.65;97241.06;6374226;27;19923;-65
2022/04/30 07:29:09;;;;;;;;;;;;;;;46.02;3.35;97229.59;6355108;27;19919;-64
2022/04/30 07:32:13;;;;;;;;;;;;;;;45.69;3.65;97217.97;6356159;27;19924;-66
2022/04/30 07:35:14;;;;;;;;;;;;;;;45.80;3.56;97224.91;6373176;27;19934;-65
2022/04/30 07:38:23;;;;;;;;;;;;;;;46.48;2.96;97221.91;6373992;27;20013;-64
2022/04/30 07:41:26;;;;;;;;;;;;;;;46.24;3.66;97223.16;6372943;27;20014;-65
2022/04/30 07:44:29;;;;;;;;;;;;;;;46.54;3.43;97220.59;6372777;27;20300;-65
2022/04/30 07:47:33;;;;;;;;;;;;;;;46.38;3.29;97220.25;6373722;27;20013;-65
2022/04/30 07:50:38;;;;;;;;;;;;;;;45.75;3.94;97211.16;6373293;27;19923;-65
2022/04/30 07:53:42;;;;;;;;;;;;;;;44.80;4.15;97197.41;6372503;27;19924;-65
2022/04/30 07:56:43;;;;;;;;;;;;;;;43.77;4.59;97195.06;6354459;27;19926;-66
2022/04/30 07:59:47;;;;;;;;;;;;;;;42.12;4.81;97187.59;6354111;27;20389;-65
2022/04/30 08:02:48;;;;;;;;;;;;;;;42.68;4.42;97184.09;6371864;27;19950;-66
2022/04/30 08:05:49;;;;;;;;;;;;;;;42.29;4.49;97178.81;6372426;27;19930;-65
2022/04/30 08:08:55;;;;;;;;;;;;;;;41.15;4.83;97170.06;6373043;27;19930;-65
2022/04/30 08:11:56;;;;;;;;;;;;;;;40.53;4.76;97175.16;6371490;27;19923;-65
2022/04/30 08:14:57;;;;;;;;;;;;;;;39.56;5.08;97160.94;6372230;27;20415;-65
2022/04/30 08:18:00;;;;;;;;;;;;;;;38.10;5.86;97162.13;6372749;27;19927;-64
2022/04/30 08:21:05;;;;;;;;;;;;;;;38.02;5.76;97170.88;6372850;27;20238;-65
2022/04/30 08:24:06;;;;;;;;;;;;;;;38.09;5.90;97171.47;6371508;27;19923;-65
2022/04/30 08:27:13;;;;;;;;;;;;;;;38.00;6.14;97167.59;6371387;27;19923;-65
2022/04/30 08:30:19;;;;;;;;;;;;;;;38.26;6.23;97161.06;6372805;27;19924;-65
2022/04/30 08:33:20;;;;;;;;;;;;;;;39.00;6.00;97153.53;6371739;27;20014;-64
2022/04/30 08:36:27;;;;;;;;;;;;;;;38.97;5.69;97159.59;6371316;27;19923;-65
2022/04/30 08:39:31;;;;;;;;;;;;;;;40.11;5.74;97161.84;6371637;27;19923;-65
2022/04/30 08:42:35;;;;;;;;;;;;;;;41.62;5.20;97170.50;6371393;27;19923;-65
2022/04/30 08:45:40;;;;;;;;;;;;;;;42.26;4.85;97154.53;6371825;27;19923;-65
2022/04/30 08:48:43;;;;;;;;;;;;;;;41.52;5.08;97152.06;6353429;27;19927;-65
2022/04/30 08:51:47;;;;;;;;;;;;;;;40.06;5.88;97142.59;6372276;27;19923;-65
2022/04/30 08:54:50;;;;;;;;;;;;;;;39.85;5.89;97136.34;6372381;27;20392;-63
2022/04/30 08:57:55;;;;;;;;;;;;;;;40.76;5.45;97139.72;6371269;27;19930;-65
2022/04/30 09:01:02;;;;;;;;;;;;;;;41.53;5.51;97139.91;6371609;27;19923;-65
2022/04/30 09:04:03;;;;;;;;;;;;;;;41.42;5.29;97135.59;6352754;27;19930;-65
2022/04/30 09:07:11;;;;;;;;;;;;;;;40.89;5.65;97125.28;6371062;27;19930;-65
2022/04/30 09:10:20;;;;;;;;;;;;;;;40.97;5.45;97118.34;6370857;27;19923;-65
2022/04/30 09:13:23;;;;;;;;;;;;;;;41.58;5.28;97125.22;6370277;27;19972;-65
2022/04/30 09:16:28;;;;;;;;;;;;;;;41.81;5.33;97121.63;6370855;27;20404;-65
2022/04/30 09:19:47;;;;;;;;;;;;;;;41.93;5.45;97108.25;6371758;27;19923;-65
2022/04/30 09:22:50;;;;;;;;;;;;;;;40.87;5.27;97112.88;6370304;27;19930;-64
2022/04/30 09:25:53;;;;;;;;;;;;;;;40.37;5.96;97104.66;6370447;27;20343;-65
2022/04/30 09:28:56;;;;;;;;;;;;;;;40.31;5.87;97108.56;6371225;28;19923;-65
2022/04/30 09:31:57;;;;;;;;;;;;;;;39.34;5.97;97092.44;6370373;28;19952;-65
2022/04/30 09:38:36;;;;;;;;;;;;;;;34.22;8.40;97074.41;6371552;28;19923;-65
2022/04/30 09:41:37;;;;;;;;;;;;;;;32.76;8.73;97058.19;6370358;28;20119;-65
2022/04/30 09:44:38;;;;;;;;;;;;;;;32.37;8.90;97061.31;6369546;28;20134;-64
2022/04/30 09:47:42;;;;;;;;;;;;;;;32.63;9.04;97065.50;6371288;28;19927;-65
2022/04/30 09:54:05;;;;;;;;;;;;;;;33.93;8.37;97047.09;6370059;28;20277;-65
2022/04/30 09:57:07;;;;;;;;;;;;;;;34.46;8.11;97045.06;6371185;28;19923;-66
2022/04/30 10:00:09;;;;;;;;;;;;;;;34.55;8.11;97045.47;6370327;28;19915;-65
2022/04/30 10:03:11;;;;;;;;;;;;;;;34.39;8.29;97044.38;6370286;28;19930;-64
2022/04/30 10:06:16;;;;;;;;;;;;;;;34.52;8.50;97037.78;6370573;28;20324;-66
2022/04/30 10:09:18;;;;;;;;;;;;;;;34.85;8.13;97036.97;6370018;28;20008;-65
2022/04/30 10:12:31;;;;;;;;;;;;;;;34.99;8.18;97027.34;6370802;28;19927;-64
2022/04/30 10:15:44;;;;;;;;;;;;;;;34.25;8.47;97032.94;6369449;28;19924;-64
2022/04/30 10:18:56;;;;;;;;;;;;;;;33.79;8.83;97028.53;6369718;28;20048;-65
2022/04/30 10:22:13;;;;;;;;;;;;;;;33.68;8.54;97022.03;6370072;28;19955;-65
2022/04/30 10:25:14;;;;;;;;;;;;;;;33.42;8.97;97024.22;6370345;28;19924;-65
2022/04/30 10:28:17;;;;;;;;;;;;;;;33.25;9.02;97017.88;6370975;28;20479;-65
2022/04/30 10:31:21;;;;;;;;;;;;;;;32.51;9.27;97018.38;6370805;28;20006;-65
2022/04/30 10:34:29;;;;;;;;;;;;;;;31.75;10.03;97020.72;6371595;27;19931;-65
2022/04/30 10:37:33;;;;;;;;;;;;;;;30.81;10.63;97019.34;6355886;27;19924;-65
2022/04/30 10:40:56;;;;;;;;;;;;;;;29.92;10.77;97015.81;6374101;27;19923;-65
2022/04/30 10:44:02;;;;;;;;;;;;;;;29.14;11.33;97010.56;6374046;27;19949;-65
2022/04/30 10:47:09;;;;;;;;;;;;;;;28.51;11.75;96994.84;6374551;27;20497;-64
2022/04/30 10:50:10;;;;;;;;;;;;;;;27.82;12.01;97001.44;6374454;27;20394;-65
2022/04/30 10:53:12;;;;;;;;;;;;;;;26.99;12.52;96993.41;6374045;27;19930;-65
2022/04/30 10:56:15;;;;;;;;;;;;;;;26.45;12.80;96996.78;6375081;27;19925;-65
2022/04/30 10:59:24;;;;;;;;;;;;;;;25.88;13.10;96991.34;6374109;27;19923;-65
2022/04/30 11:02:31;;;;;;;;;;;;;;;25.63;13.40;96992.72;6373648;27;19923;-64
2022/04/30 11:05:35;;;;;;;;;;;;;;;25.21;13.87;96994.31;6373738;27;20419;-65
2022/04/30 11:08:37;;;;;;;;;;;;;;;24.81;14.17;96994.59;6374112;27;20330;-65
2022/04/30 11:11:44;;;;;;;;;;;;;;;24.30;14.37;96997.13;6374668;27;19928;-65
2022/04/30 11:14:47;;;;;;;;;;;;;;;24.03;14.53;96995.84;6373648;27;20109;-65
2022/04/30 11:17:52;;;;;;;;;;;;;;;24.01;14.29;96989.84;6356484;27;19927;-65
2022/04/30 11:21:00;;;;;;;;;;;;;;;23.84;14.33;96980.25;6373551;27;19930;-65
2022/04/30 11:24:02;;;;;;;;;;;;;;;23.69;14.69;96983.69;6373458;27;19923;-65
2022/04/30 11:27:09;;;;;;;;;;;;;;;23.46;14.82;96972.06;6373468;27;19923;-65
2022/04/30 11:30:14;;;;;;;;;;;;;;;23.23;14.90;96972.88;6373937;27;19927;-64
2022/04/30 11:33:17;;;;;;;;;;;;;;;22.93;15.11;96961.09;6373444;27;19923;-65
2022/04/30 11:36:18;;;;;;;;;;;;;;;22.58;15.56;96957.03;6355737;27;20296;-65
2022/04/30 11:39:19;;;;;;;;;;;;;;;22.35;15.68;96962.31;6337581;27;19929;-64
2022/04/30 11:42:25;;;;;;;;;;;;;;;22.12;16.12;96967.50;6373884;27;19924;-64
2022/04/30 11:45:30;;;;;;;;;;;;;;;21.86;16.13;96957.81;6373029;27;20286;-66
2022/04/30 11:48:38;;;;;;;;;;;;;;;21.39;16.83;96958.44;6373533;27;19923;-65
2022/04/30 11:51:43;;;;;;;;;;;;;;;20.99;16.96;96960.00;6373517;27;19931;-64
2022/04/30 11:54:44;;;;;;;;;;;;;;;20.91;17.12;96951.94;6372544;27;19930;-64
2022/04/30 11:57:45;;;;;;;;;;;;;;;20.86;17.16;96954.25;6373565;27;20254;-64
2022/04/30 12:00:52;;;;;;;;;;;;;;;20.73;17.32;96954.75;6373228;27;19943;-64
2022/04/30 12:03:58;;;;;;;;;;;;;;;20.62;17.42;96941.66;6372381;27;19988;-65
2022/04/30 12:07:07;;;;;;;;;;;;;;;20.65;17.98;96940.50;6373190;27;19924;-64
2022/04/30 12:10:17;;;;;;;;;;;;;;;20.18;18.08;96934.56;6372794;27;19931;-64
2022/04/30 12:13:23;;;;;;;;;;;;;;;20.04;18.23;96932.47;6371956;27;19923;-65
2022/04/30 12:16:24;;;;;;;;;;;;;;;20.01;18.13;96927.41;6371909;27;19924;-64
2022/04/30 12:26:09;;;;;;;;;;;;;;;19.93;18.17;96916.72;6373160;27;19923;-64
2022/04/30 12:29:19;;;;;;;;;;;;;;;19.91;18.05;96910.69;6372595;27;19923;-64
2022/04/30 12:32:23;;;;;;;;;;;;;;;19.94;17.89;96915.69;6371727;27;19923;-65
2022/04/30 12:35:26;;;;;;;;;;;;;;;19.88;18.24;96911.00;6371958;27;19997;-65
2022/04/30 12:38:34;;;;;;;;;;;;;;;19.72;18.53;96912.53;6372474;27;19930;-65
2022/04/30 12:41:37;;;;;;;;;;;;;;;19.40;18.80;96912.25;6372153;27;20425;-64
2022/04/30 12:44:41;;;;;;;;;;;;;;;19.15;18.98;96904.03;6371930;27;19924;-65
2022/04/30 12:47:44;;;;;;;;;;;;;;;19.21;18.96;96892.75;6372106;27;19923;-64
2022/04/30 12:50:45;;;;;;;;;;;;;;;19.07;19.17;96890.59;6371538;27;20017;-64
2022/04/30 12:53:47;;;;;;;;;;;;;;;18.96;18.96;96893.50;6371639;27;19930;-65
2022/04/30 12:56:48;;;;;;;;;;;;;;;18.90;19.29;96888.78;6370518;27;19923;-64
2022/04/30 12:59:50;;;;;;;;;;;;;;;18.88;18.76;96888.06;6370514;27;19923;-65
2022/04/30 13:02:52;;;;;;;;;;;;;;;18.82;19.42;96887.72;6370865;27;20423;-64
2022/04/30 13:05:58;;;;;;;;;;;;;;;18.79;19.19;96885.31;6371780;27;20405;-65
2022/04/30 13:15:44;;;;;;;;;;;;;;;18.45;20.21;96884.25;6371644;27;19924;-65
2022/04/30 13:18:48;;;;;;;;;;;;;;;18.34;20.65;96883.47;6370374;27;19923;-64
2022/04/30 13:21:52;;;;;;;;;;;;;;;18.01;20.72;96876.03;6371408;27;19927;-64
2022/04/30 13:24:53;;;;;;;;;;;;;;;17.86;20.92;96871.19;6371092;27;20414;-65
2022/04/30 13:27:55;;;;;;;;;;;;;;;17.80;20.96;96866.41;6370710;27;19923;-64
2022/04/30 13:31:01;;;;;;;;;;;;;;;17.72;21.23;96871.63;6370958;28;20388;-66
2022/04/30 13:34:02;;;;;;;;;;;;;;;17.67;21.30;96871.19;6370709;28;20320;-65
2022/04/30 13:37:03;;;;;;;;;;;;;;;17.69;21.49;96861.22;6370944;28;19930;-64
2022/04/30 13:40:10;;;;;;;;;;;;;;;17.56;21.39;96866.03;6371330;28;20381;-65
2022/04/30 13:43:11;;;;;;;;;;;;;;;17.40;21.46;96867.44;6370504;28;19935;-64
2022/04/30 13:46:15;;;;;;;;;;;;;;;17.31;21.87;96865.66;6370418;28;19923;-64
2022/04/30 13:49:16;;;;;;;;;;;;;;;17.16;21.82;96864.41;6370449;28;19923;-65
2022/04/30 13:52:18;;;;;;;;;;;;;;;17.09;22.11;96857.97;6370875;28;20040;-65
2022/04/30 13:55:20;;;;;;;;;;;;;;;17.00;22.22;96862.31;6370340;28;19931;-65
2022/04/30 13:58:23;;;;;;;;;;;;;;;16.98;22.44;96865.09;6370995;28;19928;-65
2022/04/30 14:01:29;;;;;;;;;;;;;;;16.91;22.43;96866.63;6369497;28;19923;-65
2022/04/30 14:04:33;;;;;;;;;;;;;;;16.86;22.64;96860.88;6352668;28;19927;-65
2022/04/30 14:07:35;;;;;;;;;;;;;;;16.76;22.81;96873.31;6369491;28;19923;-65
2022/04/30 14:10:38;;;;;;;;;;;;;;;16.65;23.02;96870.78;6373466;27;19923;-65
2022/04/30 14:20:25;;;;;;;;;;;;;;;16.50;23.80;96863.19;6374819;27;19923;-65
2022/04/30 14:23:26;;;;;;;;;;;;;;;16.39;23.77;96865.97;6374545;27;20414;-65
2022/04/30 14:26:29;;;;;;;;;;;;;;;16.26;23.76;96865.38;6374650;27;19923;-65
2022/04/30 14:29:32;;;;;;;;;;;;;;;16.19;23.78;96858.91;6374705;27;19961;-64
2022/04/30 14:32:37;;;;;;;;;;;;;;;16.12;24.04;96859.44;6375399;27;20305;-65
2022/04/30 14:35:41;;;;;;;;;;;;;;;16.08;24.34;96855.38;6374980;27;19931;-64
2022/04/30 14:38:42;;;;;;;;;;;;;;;15.93;24.45;96854.06;6374753;27;19920;-64
2022/04/30 14:41:45;;;;;;;;;;;;;;;15.77;24.42;96848.38;6374317;27;19953;-65
2022/04/30 14:44:48;;;;;;;;;;;;;;;15.71;24.86;96840.00;6374437;27;19949;-64
2022/04/30 14:47:52;;;;;;;;;;;;;;;15.60;24.92;96841.88;6375219;27;19929;-63
2022/04/30 14:50:57;;;;;;;;;;;;;;;15.44;25.10;96842.31;6374798;27;19923;-64
2022/04/30 14:53:59;;;;;;;;;;;;;;;15.38;25.44;96848.16;6356188;27;19923;-65
2022/04/30 14:57:00;;;;;;;;;;;;;;;15.26;25.54;96842.91;6356066;27;19924;-65
2022/04/30 15:00:01;;;;;;;;;;;;;;;15.12;25.60;96843.25;6372890;27;19923;-65
2022/04/30 15:03:06;;;;;;;;;;;;;;;15.03;25.77;96839.56;6373989;27;19923;-65
2022/04/30 15:06:12;;;;;;;;;;;;;;;14.98;26.13;96840.91;6374650;27;19923;-65
2022/04/30 15:09:16;;;;;;;;;;;;;;;14.89;26.16;96842.50;6374631;27;19924;-64
2022/04/30 15:12:17;;;;;;;;;;;;;;;14.80;26.30;96843.25;6355264;27;20060;-64
2022/04/30 15:15:18;;;;;;;;;;;;;;;14.71;26.89;96839.53;6373956;27;19973;-65
2022/04/30 15:18:21;;;;;;;;;;;;;;;14.62;27.16;96837.66;6374277;27;19923;-65
2022/04/30 15:21:27;;;;;;;;;;;;;;;14.50;27.44;96841.28;6373319;27;19973;-66
2022/04/30 15:24:31;;;;;;;;;;;;;;;14.38;27.44;96848.41;6374178;27;19923;-65
2022/04/30 15:27:35;;;;;;;;;;;;;;;14.34;27.99;96842.50;6374396;27;19931;-64
2022/04/30 15:30:41;;;;;;;;;;;;;;;14.21;27.77;96841.81;6373358;27;19924;-65
2022/04/30 15:33:42;;;;;;;;;;;;;;;14.14;27.76;96845.91;6373154;27;19927;-65
2022/04/30 15:36:45;;;;;;;;;;;;;;;14.06;27.70;96848.31;6374620;27;19923;-65
2022/04/30 15:39:51;;;;;;;;;;;;;;;14.05;28.06;96859.88;6373906;27;19924;-65
2022/04/30 15:42:52;;;;;;;;;;;;;;;13.98;28.46;96861.31;6373562;27;19934;-64
2022/04/30 15:45:53;;;;;;;;;;;;;;;13.89;28.66;96853.13;6373025;27;19923;-64
2022/04/30 15:52:14;;;;;;;;;;;;;;;13.78;29.50;96854.94;6372275;27;20292;-66
2022/04/30 15:55:17;;;;;;;;;;;;;;;13.72;29.56;96853.63;6372404;27;20012;-64
2022/04/30 15:58:18;;;;;;;;;;;;;;;13.65;30.05;96849.78;6372289;27;19972;-65
2022/04/30 16:01:23;;;;;;;;;;;;;;;13.50;29.85;96848.31;6373537;27;19923;-64
2022/04/30 16:04:27;;;;;;;;;;;;;;;13.44;30.09;96842.53;6372398;27;20264;-68
2022/04/30 16:07:30;;;;;;;;;;;;;;;13.33;29.91;96844.31;6373385;27;19984;-65
2022/04/30 16:10:33;;;;;;;;;;;;;;;13.26;30.07;96841.31;6372337;27;19923;-65
2022/04/30 16:13:39;;;;;;;;;;;;;;;13.22;30.05;96834.56;6373063;27;20392;-65
2022/04/30 16:16:40;;;;;;;;;;;;;;;13.16;30.07;96837.63;6372779;27;19933;-65
2022/04/30 16:19:41;;;;;;;;;;;;;;;13.16;30.33;96837.63;6372942;27;19929;-64
2022/04/30 16:22:42;;;;;;;;;;;;;;;13.07;30.02;96835.69;6372612;27;19931;-65
2022/04/30 16:25:46;;;;;;;;;;;;;;;13.04;30.10;96840.25;6372743;27;20400;-65
2022/04/30 16:28:47;;;;;;;;;;;;;;;13.13;30.86;96843.16;6371742;27;19950;-64
2022/04/30 16:31:54;;;;;;;;;;;;;;;13.11;31.24;96832.72;6372366;27;19923;-65
2022/04/30 16:34:57;;;;;;;;;;;;;;;12.91;30.86;96828.94;6372254;27;20014;-64
2022/04/30 16:37:58;;;;;;;;;;;;;;;12.86;30.90;96831.06;6371001;27;19923;-64
2022/04/30 16:40:59;;;;;;;;;;;;;;;12.83;31.22;96826.03;6371515;27;19923;-64
2022/04/30 16:44:04;;;;;;;;;;;;;;;12.81;31.49;96827.94;6372025;27;20064;-64
2022/04/30 16:47:05;;;;;;;;;;;;;;;12.75;31.77;96817.81;6371720;27;20415;-65
2022/04/30 16:50:07;;;;;;;;;;;;;;;12.64;31.56;96815.97;6371415;27;19919;-64
2022/04/30 16:53:13;;;;;;;;;;;;;;;12.69;31.81;96826.22;6354295;27;20334;-65
2022/04/30 16:59:36;;;;;;;;;;;;;;;12.65;32.32;96815.00;6371076;27;20396;-65
2022/04/30 17:02:41;;;;;;;;;;;;;;;12.56;32.24;96811.25;6336226;27;20281;-65